Time;durP1;ratioP1;P1;durP2;ratioP2;P2;SDS_P1;SDS_P2;PMS_P1;PMS_P2;Temp;Humidity;BMP_temperature;BMP_pressure;BME280_temperature;BME280_humidity;BME280_pressure;Samples;Min_cycle;Max_cycle;Signal;HPM_P1;HPM_P2
2023/09/27 00:00:40;;;;;;;;;;;14.80;99.90;;;;;;5014117;28;20350;-33
2023/09/27 00:03:08;;;;;;;;;;;14.70;99.90;;;;;;4986256;28;20342;-32
2023/09/27 00:05:36;;;;;;;;;;;14.70;99.90;;;;;;5002507;28;19933;-31
2023/09/27 00:08:06;;;;;;;;;;;14.70;99.90;;;;;;4996342;28;20424;-31
2023/09/27 00:10:33;;;;;;;;;;;14.70;99.90;;;;;;5013813;28;20334;-31
2023/09/27 00:12:59;;;;;;;;;;;14.60;99.90;;;;;;4996378;28;20355;-32
2023/09/27 00:15:26;;;;;;;;;;;14.60;99.90;;;;;;4996303;28;20282;-32
2023/09/27 00:17:54;;;;;;;;;;;14.60;99.90;;;;;;4996496;28;19929;-31
2023/09/27 00:20:22;;;;;;;;;;;14.60;99.90;;;;;;4997474;28;20397;-31
2023/09/27 00:22:48;;;;;;;;;;;14.60;99.90;;;;;;4997064;28;19972;-32
2023/09/27 00:25:15;;;;;;;;;;;14.60;99.90;;;;;;4996156;28;20378;-33
2023/09/27 00:27:42;;;;;;;;;;;14.50;99.90;;;;;;5012860;28;19952;-33
2023/09/27 00:30:09;;;;;;;;;;;14.50;99.90;;;;;;4990251;28;20294;-33
2023/09/27 00:32:36;;;;;;;;;;;14.50;99.90;;;;;;5008499;28;20341;-32
2023/09/27 00:35:02;;;;;;;;;;;14.50;99.90;;;;;;4996773;28;19980;-33
2023/09/27 00:37:30;;;;;;;;;;;14.50;99.90;;;;;;4992916;28;20005;-33
2023/09/27 00:39:57;;;;;;;;;;;14.50;99.90;;;;;;4987347;28;19934;-33
2023/09/27 00:42:24;;;;;;;;;;;14.50;99.90;;;;;;5012425;28;19971;-32
2023/09/27 00:44:50;;;;;;;;;;;14.50;99.90;;;;;;5013036;28;20326;-32
2023/09/27 00:47:17;;;;;;;;;;;14.40;99.90;;;;;;5013866;28;20365;-32
2023/09/27 00:49:43;;;;;;;;;;;14.40;99.90;;;;;;5012752;28;20349;-33
2023/09/27 00:52:10;;;;;;;;;;;14.40;99.90;;;;;;5012960;28;20322;-32
2023/09/27 00:54:38;;;;;;;;;;;14.40;99.90;;;;;;4996776;28;20027;-33
2023/09/27 00:57:05;;;;;;;;;;;14.40;99.90;;;;;;5013996;28;19980;-33
2023/09/27 00:59:31;;;;;;;;;;;14.40;99.90;;;;;;4996249;28;19926;-32
2023/09/27 01:01:58;;;;;;;;;;;14.40;99.90;;;;;;4995826;28;20385;-33
2023/09/27 01:04:25;;;;;;;;;;;14.30;99.90;;;;;;5013290;28;20345;-32
2023/09/27 01:06:51;;;;;;;;;;;14.30;99.90;;;;;;5013602;28;19925;-31
2023/09/27 01:09:18;;;;;;;;;;;14.30;99.90;;;;;;4995953;28;19965;-32
2023/09/27 01:11:47;;;;;;;;;;;14.30;99.90;;;;;;4984521;28;19926;-33
2023/09/27 01:14:14;;;;;;;;;;;14.20;99.90;;;;;;4996355;28;19925;-32
2023/09/27 01:16:41;;;;;;;;;;;14.20;99.90;;;;;;4996542;28;19933;-32
2023/09/27 01:19:08;;;;;;;;;;;14.20;99.90;;;;;;5013856;28;19926;-31
2023/09/27 01:21:34;;;;;;;;;;;14.20;99.90;;;;;;5011081;28;20328;-32
2023/09/27 01:24:02;;;;;;;;;;;14.20;99.90;;;;;;4995962;28;20389;-33
2023/09/27 01:26:29;;;;;;;;;;;14.20;99.90;;;;;;5013246;28;19932;-33
2023/09/27 01:28:56;;;;;;;;;;;14.20;99.90;;;;;;4978787;28;20463;-31
2023/09/27 01:31:22;;;;;;;;;;;14.20;99.90;;;;;;4990845;28;20369;-31
2023/09/27 01:33:49;;;;;;;;;;;14.10;99.90;;;;;;4995925;28;20435;-33
2023/09/27 01:36:16;;;;;;;;;;;14.10;99.90;;;;;;4996069;28;20428;-32
2023/09/27 01:38:43;;;;;;;;;;;14.10;99.90;;;;;;4983160;28;19926;-32
2023/09/27 01:41:16;;;;;;;;;;;14.10;99.90;;;;;;4996057;28;19932;-32
2023/09/27 01:43:43;;;;;;;;;;;14.00;99.90;;;;;;4995436;28;19979;-32
2023/09/27 01:46:10;;;;;;;;;;;14.00;99.90;;;;;;4995442;28;19925;-31
2023/09/27 01:48:37;;;;;;;;;;;14.00;99.90;;;;;;5008556;28;19929;-32
2023/09/27 01:51:03;;;;;;;;;;;14.00;99.90;;;;;;4994747;28;19925;-32
2023/09/27 01:53:30;;;;;;;;;;;14.00;99.90;;;;;;5011959;28;19926;-31
2023/09/27 01:55:57;;;;;;;;;;;14.00;99.90;;;;;;4994801;28;19925;-31
2023/09/27 01:58:25;;;;;;;;;;;13.90;99.90;;;;;;5012244;28;20274;-32
2023/09/27 02:00:52;;;;;;;;;;;13.90;99.90;;;;;;5012628;28;19929;-31
2023/09/27 02:03:18;;;;;;;;;;;13.90;99.90;;;;;;4987906;28;19925;-32
2023/09/27 02:05:45;;;;;;;;;;;13.90;99.90;;;;;;4995225;28;19934;-32
2023/09/27 02:08:12;;;;;;;;;;;13.90;99.90;;;;;;4995203;28;19930;-32
2023/09/27 02:10:39;;;;;;;;;;;13.90;99.90;;;;;;4995083;28;19925;-32
2023/09/27 02:13:05;;;;;;;;;;;13.80;99.90;;;;;;4994781;28;20387;-32
2023/09/27 02:15:33;;;;;;;;;;;13.80;99.90;;;;;;4994356;28;20366;-31
2023/09/27 02:18:00;;;;;;;;;;;13.70;99.90;;;;;;5011559;28;19926;-32
2023/09/27 02:20:27;;;;;;;;;;;13.80;99.90;;;;;;4995069;28;19933;-32
2023/09/27 02:22:54;;;;;;;;;;;13.70;99.90;;;;;;4995448;28;20301;-31
2023/09/27 02:25:21;;;;;;;;;;;13.70;99.90;;;;;;5011804;28;19925;-32
2023/09/27 02:27:47;;;;;;;;;;;13.70;99.90;;;;;;5012062;28;19926;-32
2023/09/27 02:30:15;;;;;;;;;;;13.70;99.90;;;;;;5011860;28;19932;-32
2023/09/27 02:32:43;;;;;;;;;;;13.70;99.90;;;;;;5014114;28;19972;-33
2023/09/27 02:35:10;;;;;;;;;;;13.70;99.90;;;;;;5016123;28;19929;-33
2023/09/27 02:37:37;;;;;;;;;;;13.60;99.90;;;;;;5011410;28;19926;-30
2023/09/27 02:40:11;;;;;;;;;;;13.60;99.90;;;;;;5003399;28;20005;-33
2023/09/27 02:42:38;;;;;;;;;;;13.60;99.90;;;;;;4998558;28;19929;-32
2023/09/27 02:45:07;;;;;;;;;;;13.60;99.90;;;;;;4998624;28;20294;-32
2023/09/27 02:47:34;;;;;;;;;;;13.60;99.90;;;;;;4998435;28;19961;-32
2023/09/27 02:50:02;;;;;;;;;;;13.50;99.90;;;;;;5015859;28;19972;-32
2023/09/27 02:52:29;;;;;;;;;;;13.50;99.90;;;;;;5015346;28;19929;-31
2023/09/27 02:54:56;;;;;;;;;;;13.50;99.90;;;;;;4998301;28;19932;-34
2023/09/27 02:57:23;;;;;;;;;;;13.50;99.90;;;;;;4998168;28;19933;-32
2023/09/27 02:59:50;;;;;;;;;;;13.50;99.90;;;;;;5015077;28;19964;-32
2023/09/27 03:02:16;;;;;;;;;;;13.40;99.90;;;;;;5015631;28;20405;-31
2023/09/27 03:04:43;;;;;;;;;;;13.40;99.90;;;;;;4997928;28;19976;-31
2023/09/27 03:07:11;;;;;;;;;;;13.40;99.90;;;;;;5015297;28;20372;-31
2023/09/27 03:09:37;;;;;;;;;;;13.40;99.90;;;;;;4998269;28;19929;-32
2023/09/27 03:12:05;;;;;;;;;;;13.40;99.90;;;;;;4996844;28;19933;-32
2023/09/27 03:14:32;;;;;;;;;;;13.30;99.90;;;;;;5014121;28;19933;-31
2023/09/27 03:16:59;;;;;;;;;;;13.30;99.90;;;;;;4997315;28;19933;-32
2023/09/27 03:19:25;;;;;;;;;;;13.30;99.90;;;;;;5014106;28;19948;-34
2023/09/27 03:21:52;;;;;;;;;;;13.30;99.90;;;;;;4998099;28;19968;-32
2023/09/27 03:24:20;;;;;;;;;;;13.30;99.90;;;;;;4997472;28;19925;-32
2023/09/27 03:26:47;;;;;;;;;;;13.30;99.90;;;;;;4998413;28;19977;-33
2023/09/27 03:29:13;;;;;;;;;;;13.30;99.90;;;;;;5015156;28;19979;-34
2023/09/27 03:31:40;;;;;;;;;;;13.30;99.90;;;;;;4997481;28;19925;-32
2023/09/27 03:34:07;;;;;;;;;;;13.30;99.90;;;;;;4998414;28;20016;-32
2023/09/27 03:36:34;;;;;;;;;;;13.30;99.90;;;;;;5014356;28;19960;-31
2023/09/27 03:39:00;;;;;;;;;;;13.30;99.90;;;;;;4989096;28;19930;-32
2023/09/27 03:41:28;;;;;;;;;;;13.20;99.90;;;;;;4993219;28;19981;-32
2023/09/27 03:43:55;;;;;;;;;;;13.20;99.90;;;;;;5013585;28;20400;-32
2023/09/27 03:46:22;;;;;;;;;;;13.20;99.90;;;;;;5015379;28;20373;-31
2023/09/27 03:48:49;;;;;;;;;;;13.20;99.90;;;;;;5013768;28;20292;-32
2023/09/27 03:51:23;;;;;;;;;;;13.20;99.90;;;;;;5014147;28;20373;-32
2023/09/27 03:53:49;;;;;;;;;;;13.20;99.90;;;;;;5014662;28;20286;-32
2023/09/27 03:56:16;;;;;;;;;;;13.20;99.90;;;;;;4997040;28;20015;-32
2023/09/27 03:58:44;;;;;;;;;;;13.20;99.90;;;;;;4996610;28;19987;-32
2023/09/27 04:01:12;;;;;;;;;;;13.20;99.90;;;;;;4995447;28;19929;-31
2023/09/27 04:03:39;;;;;;;;;;;13.10;99.90;;;;;;4997141;28;19925;-32
2023/09/27 04:06:05;;;;;;;;;;;13.10;99.90;;;;;;5014676;28;19971;-32
2023/09/27 04:08:33;;;;;;;;;;;13.10;99.90;;;;;;4995078;28;19926;-31
2023/09/27 04:11:00;;;;;;;;;;;13.10;99.90;;;;;;5010600;28;20354;-32
2023/09/27 04:13:27;;;;;;;;;;;13.10;99.90;;;;;;5006648;28;19952;-31
2023/09/27 04:15:55;;;;;;;;;;;13.00;99.90;;;;;;5010258;28;19929;-31
2023/09/27 04:18:21;;;;;;;;;;;13.00;99.90;;;;;;5013447;28;20303;-31
2023/09/27 04:20:48;;;;;;;;;;;13.00;99.90;;;;;;4993839;28;19975;-32
2023/09/27 04:23:15;;;;;;;;;;;13.00;99.90;;;;;;5013899;28;19972;-31
2023/09/27 04:25:43;;;;;;;;;;;13.00;99.90;;;;;;5013499;28;20449;-32
2023/09/27 04:28:10;;;;;;;;;;;13.00;99.90;;;;;;5013600;28;19971;-32
2023/09/27 04:30:37;;;;;;;;;;;13.00;99.90;;;;;;5014571;28;20308;-32
2023/09/27 04:33:05;;;;;;;;;;;12.90;99.90;;;;;;4995573;28;20389;-33
2023/09/27 04:35:32;;;;;;;;;;;12.90;99.90;;;;;;5013997;28;20461;-31
2023/09/27 04:37:58;;;;;;;;;;;12.90;99.90;;;;;;4996349;28;20337;-32
2023/09/27 04:40:25;;;;;;;;;;;12.90;99.90;;;;;;5013357;28;20362;-32
2023/09/27 04:42:52;;;;;;;;;;;12.90;99.90;;;;;;4994883;28;20017;-31
2023/09/27 04:45:19;;;;;;;;;;;12.90;99.90;;;;;;4996302;28;19926;-33
2023/09/27 04:47:45;;;;;;;;;;;12.90;99.90;;;;;;4996317;28;19925;-32
2023/09/27 04:50:14;;;;;;;;;;;12.90;99.90;;;;;;4996339;28;19925;-31
2023/09/27 04:52:41;;;;;;;;;;;12.80;99.90;;;;;;4995483;28;20024;-33
2023/09/27 04:55:08;;;;;;;;;;;12.80;99.90;;;;;;5013402;28;19930;-31
2023/09/27 04:57:35;;;;;;;;;;;12.80;99.90;;;;;;5012622;28;19980;-33
2023/09/27 05:00:03;;;;;;;;;;;12.80;99.90;;;;;;5013749;28;19969;-32
2023/09/27 05:02:29;;;;;;;;;;;12.80;99.90;;;;;;5013737;28;20297;-34
2023/09/27 05:04:56;;;;;;;;;;;12.80;99.90;;;;;;4994803;28;20471;-32
2023/09/27 05:07:25;;;;;;;;;;;12.80;99.90;;;;;;5012795;28;19926;-32
2023/09/27 05:09:51;;;;;;;;;;;12.80;99.90;;;;;;4996147;28;19929;-32
2023/09/27 05:12:18;;;;;;;;;;;12.80;99.90;;;;;;4996218;28;19980;-30
2023/09/27 05:14:45;;;;;;;;;;;12.80;99.90;;;;;;5012970;28;19929;-32
2023/09/27 05:17:11;;;;;;;;;;;12.80;99.90;;;;;;4989310;28;19980;-31
2023/09/27 05:19:38;;;;;;;;;;;12.80;99.90;;;;;;4993612;28;19929;-31
2023/09/27 05:22:04;;;;;;;;;;;12.80;99.90;;;;;;4995017;28;19930;-33
2023/09/27 05:24:38;;;;;;;;;;;12.90;99.90;;;;;;5012875;28;19926;-31
2023/09/27 05:27:05;;;;;;;;;;;12.90;99.90;;;;;;5013399;28;19925;-31
2023/09/27 05:29:32;;;;;;;;;;;12.90;99.90;;;;;;5011984;28;19956;-32
2023/09/27 05:31:59;;;;;;;;;;;13.00;99.90;;;;;;4994257;28;19977;-32
2023/09/27 05:34:25;;;;;;;;;;;13.00;99.90;;;;;;4995641;28;19925;-32
2023/09/27 05:36:52;;;;;;;;;;;13.00;99.90;;;;;;5013269;28;20274;-32
2023/09/27 05:39:19;;;;;;;;;;;13.00;99.90;;;;;;4977694;28;20267;-33
2023/09/27 05:41:47;;;;;;;;;;;13.10;99.90;;;;;;5007703;28;19929;-32
2023/09/27 05:44:14;;;;;;;;;;;13.10;99.90;;;;;;5012633;28;20418;-32
2023/09/27 05:46:40;;;;;;;;;;;13.10;99.90;;;;;;4995709;28;19976;-32
2023/09/27 05:49:09;;;;;;;;;;;13.10;99.90;;;;;;4995764;28;19925;-32
2023/09/27 05:51:35;;;;;;;;;;;13.10;99.90;;;;;;4994278;28;19980;-33
2023/09/27 05:54:02;;;;;;;;;;;13.10;99.90;;;;;;4995397;28;19925;-33
2023/09/27 05:56:29;;;;;;;;;;;13.10;99.90;;;;;;4995778;28;19925;-32
2023/09/27 05:58:59;;;;;;;;;;;13.20;99.90;;;;;;4995653;28;19926;-32
2023/09/27 06:01:25;;;;;;;;;;;13.20;99.90;;;;;;5012263;28;20349;-33
2023/09/27 06:03:52;;;;;;;;;;;13.20;99.90;;;;;;4995091;28;19925;-32
2023/09/27 06:06:19;;;;;;;;;;;13.20;99.90;;;;;;5012261;28;19930;-33
2023/09/27 06:08:45;;;;;;;;;;;13.20;99.90;;;;;;5012363;28;19971;-33
2023/09/27 06:11:12;;;;;;;;;;;13.30;99.90;;;;;;5012494;28;19926;-32
2023/09/27 06:13:39;;;;;;;;;;;13.30;99.90;;;;;;5012711;28;19972;-31
2023/09/27 06:16:14;;;;;;;;;;;13.20;99.90;;;;;;4995340;28;19926;-32
2023/09/27 06:18:40;;;;;;;;;;;13.30;99.90;;;;;;5012643;28;19925;-31
2023/09/27 06:21:07;;;;;;;;;;;13.30;99.90;;;;;;5012056;28;19932;-31
2023/09/27 06:23:35;;;;;;;;;;;13.30;99.90;;;;;;4995543;28;20398;-31
2023/09/27 06:26:01;;;;;;;;;;;13.30;99.90;;;;;;5012632;28;20020;-31
2023/09/27 06:28:28;;;;;;;;;;;13.40;99.90;;;;;;4995323;28;19969;-31
2023/09/27 06:30:55;;;;;;;;;;;13.40;99.90;;;;;;5011933;28;20337;-33
2023/09/27 06:33:23;;;;;;;;;;;13.40;99.90;;;;;;5012204;28;20369;-32
2023/09/27 06:35:49;;;;;;;;;;;13.40;99.90;;;;;;5012324;28;19926;-32
2023/09/27 06:38:19;;;;;;;;;;;13.40;99.90;;;;;;4985266;28;19973;-32
2023/09/27 06:40:46;;;;;;;;;;;13.50;99.90;;;;;;4977920;28;19939;-32
2023/09/27 06:43:14;;;;;;;;;;;13.50;99.90;;;;;;5012441;28;19972;-32
2023/09/27 06:45:41;;;;;;;;;;;13.50;99.90;;;;;;4995490;28;19932;-31
2023/09/27 06:48:08;;;;;;;;;;;13.50;99.90;;;;;;5012314;28;19995;-31
2023/09/27 06:50:36;;;;;;;;;;;13.60;99.90;;;;;;4994488;28;19936;-32
2023/09/27 06:53:03;;;;;;;;;;;13.60;99.90;;;;;;4995199;28;19925;-32
2023/09/27 06:55:30;;;;;;;;;;;13.70;99.90;;;;;;4995006;28;19929;-32
2023/09/27 06:57:56;;;;;;;;;;;13.70;99.90;;;;;;4994952;28;20278;-32
2023/09/27 07:00:24;;;;;;;;;;;13.80;99.90;;;;;;4994911;28;19996;-31
2023/09/27 07:02:51;;;;;;;;;;;13.90;99.90;;;;;;4994123;28;19925;-32
2023/09/27 07:05:21;;;;;;;;;;;14.00;99.90;;;;;;4995090;28;19969;-32
2023/09/27 07:07:49;;;;;;;;;;;14.10;99.90;;;;;;5011644;28;19980;-32
2023/09/27 07:10:15;;;;;;;;;;;14.20;99.90;;;;;;5012165;28;19925;-33
2023/09/27 07:12:42;;;;;;;;;;;14.30;99.90;;;;;;5012189;28;20590;-32
2023/09/27 07:15:11;;;;;;;;;;;14.50;99.90;;;;;;5012066;28;19955;-32
2023/09/27 07:17:39;;;;;;;;;;;14.50;99.90;;;;;;5010820;28;20214;-32
2023/09/27 07:20:17;;;;;;;;;;;14.60;99.90;;;;;;4997720;28;20000;-32
2023/09/27 07:22:44;;;;;;;;;;;14.60;99.90;;;;;;4998954;28;20016;-31
2023/09/27 07:25:16;;;;;;;;;;;14.70;99.90;;;;;;4998178;28;19929;-31
2023/09/27 07:27:43;;;;;;;;;;;14.80;99.90;;;;;;5015198;28;19962;-31
2023/09/27 07:30:11;;;;;;;;;;;14.90;99.90;;;;;;4998317;28;19989;-32
2023/09/27 07:32:39;;;;;;;;;;;14.90;99.90;;;;;;4996993;28;19976;-32
2023/09/27 07:35:09;;;;;;;;;;;14.90;99.90;;;;;;4998349;28;19933;-34
2023/09/27 07:37:36;;;;;;;;;;;15.00;99.90;;;;;;4998008;28;19926;-31
2023/09/27 07:40:07;;;;;;;;;;;15.00;99.90;;;;;;5015578;28;19932;-32
2023/09/27 07:42:35;;;;;;;;;;;15.10;99.90;;;;;;4997312;28;20048;-32
2023/09/27 07:45:03;;;;;;;;;;;15.10;99.90;;;;;;5015192;28;19926;-32
2023/09/27 07:47:30;;;;;;;;;;;15.10;99.90;;;;;;5015332;28;19973;-32
2023/09/27 07:49:56;;;;;;;;;;;15.20;99.90;;;;;;4997454;28;19929;-32
2023/09/27 07:52:23;;;;;;;;;;;15.20;99.90;;;;;;5015322;28;20437;-32
2023/09/27 07:54:51;;;;;;;;;;;15.20;99.90;;;;;;5015101;28;19926;-33
2023/09/27 07:57:18;;;;;;;;;;;15.30;99.90;;;;;;4997814;28;19929;-33
2023/09/27 07:59:46;;;;;;;;;;;15.30;99.90;;;;;;5014659;28;20294;-32
2023/09/27 08:02:13;;;;;;;;;;;15.40;99.90;;;;;;5015407;28;20347;-32
2023/09/27 08:04:40;;;;;;;;;;;15.40;99.90;;;;;;5014337;28;19925;-32
2023/09/27 08:07:06;;;;;;;;;;;15.50;99.90;;;;;;4997554;28;19925;-32
2023/09/27 08:09:38;;;;;;;;;;;15.50;99.90;;;;;;4997020;28;19980;-32
2023/09/27 08:12:05;;;;;;;;;;;15.50;99.90;;;;;;4997296;28;20293;-32
2023/09/27 08:14:32;;;;;;;;;;;15.60;99.90;;;;;;4996819;28;19933;-35
2023/09/27 08:17:02;;;;;;;;;;;15.70;99.90;;;;;;5014832;28;20382;-33
2023/09/27 08:19:29;;;;;;;;;;;15.80;99.90;;;;;;5014598;28;19956;-33
2023/09/27 08:21:56;;;;;;;;;;;15.90;99.90;;;;;;5001984;28;20061;-32
2023/09/27 08:24:22;;;;;;;;;;;16.10;99.90;;;;;;5006559;28;19925;-33
2023/09/27 08:26:49;;;;;;;;;;;16.30;99.90;;;;;;5014624;28;20174;-33
2023/09/27 08:29:18;;;;;;;;;;;16.40;99.90;;;;;;4996970;28;19933;-33
2023/09/27 08:31:45;;;;;;;;;;;16.60;99.90;;;;;;4996214;28;19932;-32
2023/09/27 08:34:13;;;;;;;;;;;16.80;99.90;;;;;;5014598;28;19932;-33
2023/09/27 08:36:40;;;;;;;;;;;16.90;99.90;;;;;;4996540;28;19932;-32
2023/09/27 08:39:06;;;;;;;;;;;17.00;99.90;;;;;;4997136;28;19996;-32
2023/09/27 08:41:33;;;;;;;;;;;17.10;99.90;;;;;;4996759;28;19929;-32
2023/09/27 08:44:00;;;;;;;;;;;17.30;99.90;;;;;;4997194;28;19929;-33
2023/09/27 08:46:27;;;;;;;;;;;17.40;99.90;;;;;;4997071;28;19926;-34
2023/09/27 08:48:55;;;;;;;;;;;17.50;99.90;;;;;;4995702;28;19980;-32
2023/09/27 08:51:25;;;;;;;;;;;17.70;99.90;;;;;;5014150;28;19925;-32
2023/09/27 08:53:52;;;;;;;;;;;17.80;99.90;;;;;;4996889;28;19926;-32
2023/09/27 08:56:20;;;;;;;;;;;18.00;99.90;;;;;;4996849;28;19925;-32
2023/09/27 08:58:48;;;;;;;;;;;18.10;99.90;;;;;;5013502;28;19957;-32
2023/09/27 09:01:15;;;;;;;;;;;18.20;99.90;;;;;;5012409;28;20357;-32
2023/09/27 09:03:42;;;;;;;;;;;18.30;99.90;;;;;;4996434;28;19926;-31
2023/09/27 09:06:11;;;;;;;;;;;18.40;99.90;;;;;;4996713;28;20403;-33
2023/09/27 09:08:41;;;;;;;;;;;18.50;99.90;;;;;;4996091;28;20390;-32
2023/09/27 09:11:08;;;;;;;;;;;18.70;99.90;;;;;;4995927;28;20019;-32
2023/09/27 09:13:50;;;;;;;;;;;18.80;99.90;;;;;;4995309;28;19932;-33
2023/09/27 09:16:23;;;;;;;;;;;19.00;99.90;;;;;;4995923;28;19926;-31
2023/09/27 09:18:51;;;;;;;;;;;19.20;99.90;;;;;;4995106;28;19934;-31
2023/09/27 09:21:19;;;;;;;;;;;19.30;99.90;;;;;;5013551;28;19925;-33
2023/09/27 09:23:48;;;;;;;;;;;19.40;99.90;;;;;;4995648;28;19936;-32
2023/09/27 09:26:25;;;;;;;;;;;19.40;99.90;;;;;;4996148;28;19929;-31
2023/09/27 09:28:52;;;;;;;;;;;19.40;99.90;;;;;;4994659;28;19925;-32
2023/09/27 09:31:21;;;;;;;;;;;19.50;99.90;;;;;;5012716;28;19972;-33
2023/09/27 09:33:51;;;;;;;;;;;19.60;99.90;;;;;;5013218;28;20385;-32
2023/09/27 09:36:18;;;;;;;;;;;19.70;99.90;;;;;;5013095;28;19929;-33
2023/09/27 09:38:45;;;;;;;;;;;19.90;99.90;;;;;;4995507;28;20341;-32
2023/09/27 09:41:13;;;;;;;;;;;20.00;99.90;;;;;;5013250;28;20329;-33
2023/09/27 09:43:40;;;;;;;;;;;20.10;99.90;;;;;;4995600;28;19926;-33
2023/09/27 09:46:08;;;;;;;;;;;20.10;99.90;;;;;;4995897;28;19980;-32
2023/09/27 09:48:35;;;;;;;;;;;20.10;99.90;;;;;;4994681;28;19932;-35
2023/09/27 09:51:03;;;;;;;;;;;20.10;99.90;;;;;;4995620;28;19932;-34
2023/09/27 09:53:29;;;;;;;;;;;20.10;99.90;;;;;;4995808;28;19925;-33
2023/09/27 09:55:56;;;;;;;;;;;20.20;99.90;;;;;;4995441;28;20008;-32
2023/09/27 09:58:25;;;;;;;;;;;20.20;99.90;;;;;;5011823;28;19933;-33
2023/09/27 10:00:53;;;;;;;;;;;20.30;99.90;;;;;;4994211;28;20354;-33
2023/09/27 10:03:20;;;;;;;;;;;20.60;99.90;;;;;;5012285;28;19973;-33
2023/09/27 10:05:50;;;;;;;;;;;20.60;99.90;;;;;;4996095;28;19932;-33
2023/09/27 10:08:17;;;;;;;;;;;20.70;99.90;;;;;;4995858;28;19953;-33
2023/09/27 10:10:43;;;;;;;;;;;20.70;99.90;;;;;;4994742;28;19929;-32
2023/09/27 10:13:10;;;;;;;;;;;20.80;99.90;;;;;;4995484;28;19933;-32
2023/09/27 10:15:38;;;;;;;;;;;20.80;99.90;;;;;;4995334;28;20385;-32
2023/09/27 10:18:24;;;;;;;;;;;20.80;99.90;;;;;;4994882;28;19976;-33
2023/09/27 10:21:01;;;;;;;;;;;20.80;99.90;;;;;;4990377;28;19925;-32
2023/09/27 10:23:30;;;;;;;;;;;20.80;99.90;;;;;;4993124;28;20341;-33
2023/09/27 10:25:57;;;;;;;;;;;20.90;99.90;;;;;;4975829;28;19930;-33
2023/09/27 10:28:24;;;;;;;;;;;21.00;99.90;;;;;;4975927;28;19968;-32
2023/09/27 10:31:07;;;;;;;;;;;21.00;99.90;;;;;;5004372;28;19926;-35
2023/09/27 10:33:34;;;;;;;;;;;21.10;99.90;;;;;;5012720;28;19979;-33
2023/09/27 10:36:26;;;;;;;;;;;21.10;99.90;;;;;;5012538;28;19932;-34
2023/09/27 10:39:06;;;;;;;;;;;21.20;99.90;;;;;;4995667;28;20365;-31
2023/09/27 10:41:48;;;;;;;;;;;21.20;99.90;;;;;;5011557;28;20381;-32
2023/09/27 10:44:28;;;;;;;;;;;21.30;99.90;;;;;;5012815;28;20454;-32
2023/09/27 10:46:56;;;;;;;;;;;21.50;99.90;;;;;;4995132;28;20456;-33
2023/09/27 10:49:24;;;;;;;;;;;21.60;99.90;;;;;;5012378;28;19936;-33
2023/09/27 10:51:51;;;;;;;;;;;21.70;99.90;;;;;;5011581;28;20012;-33
2023/09/27 10:54:21;;;;;;;;;;;21.80;99.90;;;;;;4997362;28;19981;-32
2023/09/27 10:56:52;;;;;;;;;;;21.80;99.90;;;;;;4998963;28;19929;-33
2023/09/27 10:59:23;;;;;;;;;;;21.90;99.90;;;;;;4999137;28;19972;-32
2023/09/27 11:01:49;;;;;;;;;;;22.10;99.90;;;;;;4997672;28;19926;-32
2023/09/27 11:04:20;;;;;;;;;;;22.10;99.90;;;;;;4998819;28;19925;-33
2023/09/27 11:06:47;;;;;;;;;;;22.20;99.90;;;;;;4998909;28;19936;-33
2023/09/27 11:09:13;;;;;;;;;;;22.30;99.90;;;;;;5016261;28;19925;-31
2023/09/27 11:11:43;;;;;;;;;;;22.30;99.90;;;;;;4989668;28;20016;-32
2023/09/27 11:14:10;;;;;;;;;;;22.30;99.90;;;;;;5015191;28;20471;-31
2023/09/27 11:16:36;;;;;;;;;;;22.30;99.90;;;;;;5014778;28;19984;-31
2023/09/27 11:19:04;;;;;;;;;;;22.30;99.90;;;;;;4997768;28;19933;-32
2023/09/27 11:21:32;;;;;;;;;;;22.20;99.90;;;;;;5008273;28;19925;-31
2023/09/27 11:23:59;;;;;;;;;;;22.20;99.90;;;;;;4998573;28;19932;-31
2023/09/27 11:26:26;;;;;;;;;;;22.20;99.90;;;;;;5013151;28;20381;-32
2023/09/27 11:28:59;;;;;;;;;;;22.30;99.90;;;;;;4997524;28;20396;-31
2023/09/27 11:31:26;;;;;;;;;;;22.30;99.90;;;;;;4998281;28;20412;-32
2023/09/27 11:33:53;;;;;;;;;;;22.30;99.90;;;;;;4998256;28;19976;-31
2023/09/27 11:36:20;;;;;;;;;;;22.40;99.90;;;;;;4996690;28;19964;-32
2023/09/27 11:38:51;;;;;;;;;;;22.50;99.90;;;;;;5013868;28;19941;-34
2023/09/27 11:41:18;;;;;;;;;;;22.50;99.90;;;;;;5015532;28;19926;-32
2023/09/27 11:43:46;;;;;;;;;;;22.50;99.90;;;;;;4998229;28;20370;-33
2023/09/27 11:46:12;;;;;;;;;;;22.50;99.90;;;;;;5014156;28;20352;-34
2023/09/27 11:48:40;;;;;;;;;;;22.40;99.90;;;;;;4998160;28;19984;-32
2023/09/27 11:51:06;;;;;;;;;;;22.40;99.90;;;;;;4998100;28;19932;-31
2023/09/27 11:53:33;;;;;;;;;;;22.30;99.90;;;;;;5015235;28;19972;-32
2023/09/27 11:56:01;;;;;;;;;;;22.30;99.90;;;;;;5014674;28;19925;-32
2023/09/27 11:58:28;;;;;;;;;;;22.30;99.90;;;;;;5014642;28;19936;-31
2023/09/27 12:00:54;;;;;;;;;;;22.20;99.90;;;;;;5014973;28;19929;-33
2023/09/27 12:03:21;;;;;;;;;;;22.20;99.90;;;;;;5012976;28;20301;-32
2023/09/27 12:05:48;;;;;;;;;;;22.20;99.90;;;;;;5013835;28;20370;-32
2023/09/27 12:08:14;;;;;;;;;;;22.30;99.90;;;;;;5013826;28;19926;-32
2023/09/27 12:10:41;;;;;;;;;;;22.30;99.90;;;;;;5013954;28;19974;-32
2023/09/27 12:13:09;;;;;;;;;;;22.40;99.90;;;;;;5014792;28;19925;-32
2023/09/27 12:15:36;;;;;;;;;;;22.50;99.90;;;;;;5014810;28;19948;-32
2023/09/27 12:18:03;;;;;;;;;;;22.50;99.90;;;;;;5013612;28;19936;-33
2023/09/27 12:20:30;;;;;;;;;;;22.50;99.90;;;;;;5014767;28;19926;-31
2023/09/27 12:22:57;;;;;;;;;;;22.60;99.90;;;;;;4996844;28;19976;-32
2023/09/27 12:25:23;;;;;;;;;;;22.60;99.90;;;;;;4997157;28;19980;-31
2023/09/27 12:27:50;;;;;;;;;;;22.60;99.90;;;;;;5014330;28;19933;-32
2023/09/27 12:30:18;;;;;;;;;;;22.60;99.90;;;;;;4997104;28;20440;-32
2023/09/27 12:32:45;;;;;;;;;;;22.60;99.90;;;;;;5014293;28;20286;-32
2023/09/27 12:35:11;;;;;;;;;;;22.60;99.90;;;;;;4996917;28;20381;-32
2023/09/27 12:37:38;;;;;;;;;;;22.70;99.90;;;;;;4997022;28;19926;-32
2023/09/27 12:40:05;;;;;;;;;;;22.70;99.90;;;;;;5014228;28;19925;-32
2023/09/27 12:42:32;;;;;;;;;;;22.80;99.90;;;;;;4996952;28;19925;-32
2023/09/27 12:44:59;;;;;;;;;;;22.80;99.90;;;;;;5012668;28;20333;-32
2023/09/27 12:47:27;;;;;;;;;;;22.90;99.90;;;;;;5014111;28;19987;-32
2023/09/27 12:49:53;;;;;;;;;;;22.90;99.90;;;;;;5014361;28;19981;-33
2023/09/27 12:52:20;;;;;;;;;;;22.90;99.90;;;;;;5013412;28;19925;-32
2023/09/27 12:54:48;;;;;;;;;;;22.90;99.90;;;;;;4996686;28;20022;-33
2023/09/27 12:57:14;;;;;;;;;;;23.00;99.90;;;;;;5013993;28;19976;-32
2023/09/27 12:59:41;;;;;;;;;;;23.10;99.90;;;;;;4996761;28;19984;-32
2023/09/27 13:02:07;;;;;;;;;;;23.20;99.90;;;;;;4996579;28;19930;-32
2023/09/27 13:04:36;;;;;;;;;;;23.40;99.90;;;;;;4995802;28;19933;-32
2023/09/27 13:07:03;;;;;;;;;;;23.50;99.90;;;;;;5014049;28;19932;-33
2023/09/27 13:09:29;;;;;;;;;;;23.50;99.90;;;;;;5013993;28;20362;-33
2023/09/27 13:11:56;;;;;;;;;;;23.70;99.90;;;;;;5013988;28;19925;-32
2023/09/27 13:14:23;;;;;;;;;;;23.80;99.90;;;;;;4996480;28;19926;-33
2023/09/27 13:16:49;;;;;;;;;;;24.00;99.90;;;;;;4994815;28;19969;-32
2023/09/27 13:19:16;;;;;;;;;;;24.10;99.90;;;;;;4995969;28;19926;-32
2023/09/27 13:21:44;;;;;;;;;;;24.20;99.90;;;;;;5002206;28;19973;-33
2023/09/27 13:24:11;;;;;;;;;;;24.30;99.90;;;;;;5006703;28;19930;-33
2023/09/27 13:26:37;;;;;;;;;;;24.30;99.90;;;;;;4996171;28;20404;-32
2023/09/27 13:29:04;;;;;;;;;;;24.40;99.90;;;;;;4996027;28;20382;-32
2023/09/27 13:31:34;;;;;;;;;;;24.40;99.90;;;;;;4995978;28;19976;-33
2023/09/27 13:34:00;;;;;;;;;;;24.40;99.90;;;;;;5012080;28;20358;-35
2023/09/27 13:36:28;;;;;;;;;;;24.40;99.90;;;;;;5011599;28;20322;-32
2023/09/27 13:38:58;;;;;;;;;;;24.40;99.90;;;;;;5011955;28;20033;-32
2023/09/27 13:41:25;;;;;;;;;;;24.30;99.90;;;;;;4995586;28;20298;-36
2023/09/27 13:43:52;;;;;;;;;;;24.10;99.90;;;;;;5013095;28;20032;-32
2023/09/27 13:46:18;;;;;;;;;;;24.10;99.90;;;;;;4995868;28;19974;-33
2023/09/27 13:48:45;;;;;;;;;;;24.00;99.90;;;;;;4994918;28;20282;-32
2023/09/27 13:51:12;;;;;;;;;;;24.00;99.90;;;;;;4994854;28;19972;-32
2023/09/27 13:53:39;;;;;;;;;;;24.00;99.90;;;;;;5013009;28;19925;-33
2023/09/27 13:56:06;;;;;;;;;;;24.00;99.90;;;;;;4995460;28;19926;-33
2023/09/27 13:58:33;;;;;;;;;;;24.20;99.90;;;;;;4995240;28;19929;-32
2023/09/27 14:01:00;;;;;;;;;;;24.40;99.90;;;;;;4994757;28;19929;-32
2023/09/27 14:03:26;;;;;;;;;;;24.60;99.90;;;;;;5013148;28;20028;-32
2023/09/27 14:05:53;;;;;;;;;;;24.60;99.90;;;;;;4995691;28;19988;-33
2023/09/27 14:08:20;;;;;;;;;;;24.60;99.90;;;;;;4994709;28;19925;-32
2023/09/27 14:10:46;;;;;;;;;;;24.60;99.90;;;;;;5012857;28;19925;-33
2023/09/27 14:13:14;;;;;;;;;;;24.60;99.90;;;;;;4995507;28;19926;-33
2023/09/27 14:15:41;;;;;;;;;;;24.70;99.90;;;;;;5013173;28;20312;-33
2023/09/27 14:18:08;;;;;;;;;;;24.80;99.90;;;;;;5011718;28;20381;-32